sensor_id;sensor_type;location;lat;lon;timestamp;temperature;humidity
19870;DHT22;10097;50.862;4.696;2023-04-24T00:00:46;10.80;99.90
19870;DHT22;10097;50.862;4.696;2023-04-24T00:03:12;10.70;99.90
19870;DHT22;10097;50.862;4.696;2023-04-24T00:05:38;10.80;99.90
19870;DHT22;10097;50.862;4.696;2023-04-24T00:08:06;10.80;99.90
19870;DHT22;10097;50.862;4.696;2023-04-24T00:10:31;10.70;99.90
19870;DHT22;10097;50.862;4.696;2023-04-24T00:12:57;10.70;99.90
19870;DHT22;10097;50.862;4.696;2023-04-24T00:15:23;10.60;99.90
19870;DHT22;10097;50.862;4.696;2023-04-24T00:17:48;10.60;99.90
19870;DHT22;10097;50.862;4.696;2023-04-24T00:20:14;10.50;99.90
19870;DHT22;10097;50.862;4.696;2023-04-24T00:22:40;10.50;99.90
19870;DHT22;10097;50.862;4.696;2023-04-24T00:25:06;10.50;99.90
19870;DHT22;10097;50.862;4.696;2023-04-24T00:27:32;10.50;99.90
19870;DHT22;10097;50.862;4.696;2023-04-24T00:29:57;10.50;99.90
19870;DHT22;10097;50.862;4.696;2023-04-24T00:32:23;10.60;99.90
19870;DHT22;10097;50.862;4.696;2023-04-24T00:34:48;10.50;99.90
19870;DHT22;10097;50.862;4.696;2023-04-24T00:37:14;10.60;99.90
19870;DHT22;10097;50.862;4.696;2023-04-24T00:39:40;10.70;99.90
19870;DHT22;10097;50.862;4.696;2023-04-24T00:42:06;10.80;99.90
19870;DHT22;10097;50.862;4.696;2023-04-24T00:44:33;10.70;99.90
19870;DHT22;10097;50.862;4.696;2023-04-24T00:46:59;10.60;99.90
19870;DHT22;10097;50.862;4.696;2023-04-24T00:49:26;10.60;99.90
19870;DHT22;10097;50.862;4.696;2023-04-24T00:51:52;10.60;99.90
19870;DHT22;10097;50.862;4.696;2023-04-24T00:54:19;10.50;99.90
19870;DHT22;10097;50.862;4.696;2023-04-24T00:56:45;10.40;99.90
19870;DHT22;10097;50.862;4.696;2023-04-24T00:59:16;10.30;99.90
19870;DHT22;10097;50.862;4.696;2023-04-24T01:01:43;10.50;99.90
19870;DHT22;10097;50.862;4.696;2023-04-24T01:04:10;10.40;99.90
19870;DHT22;10097;50.862;4.696;2023-04-24T01:06:39;10.40;99.90
19870;DHT22;10097;50.862;4.696;2023-04-24T01:09:05;10.40;99.90
19870;DHT22;10097;50.862;4.696;2023-04-24T01:11:33;10.40;99.90
19870;DHT22;10097;50.862;4.696;2023-04-24T01:13:59;10.40;99.90
19870;DHT22;10097;50.862;4.696;2023-04-24T01:16:25;10.40;99.90
19870;DHT22;10097;50.862;4.696;2023-04-24T01:18:51;10.40;99.90
19870;DHT22;10097;50.862;4.696;2023-04-24T01:21:18;10.30;99.90
19870;DHT22;10097;50.862;4.696;2023-04-24T01:23:45;10.40;99.90
19870;DHT22;10097;50.862;4.696;2023-04-24T01:26:12;10.40;99.90
19870;DHT22;10097;50.862;4.696;2023-04-24T01:28:38;10.40;99.90
19870;DHT22;10097;50.862;4.696;2023-04-24T01:31:04;10.40;99.90
19870;DHT22;10097;50.862;4.696;2023-04-24T01:33:30;10.40;99.90
19870;DHT22;10097;50.862;4.696;2023-04-24T01:35:56;10.50;99.90
19870;DHT22;10097;50.862;4.696;2023-04-24T01:38:22;10.40;99.90
19870;DHT22;10097;50.862;4.696;2023-04-24T01:40:49;10.40;99.90
19870;DHT22;10097;50.862;4.696;2023-04-24T01:43:15;10.40;99.90
19870;DHT22;10097;50.862;4.696;2023-04-24T01:45:41;10.30;99.90
19870;DHT22;10097;50.862;4.696;2023-04-24T01:48:07;10.20;99.90
19870;DHT22;10097;50.862;4.696;2023-04-24T01:50:33;10.10;99.90
19870;DHT22;10097;50.862;4.696;2023-04-24T01:52:59;10.00;99.90
19870;DHT22;10097;50.862;4.696;2023-04-24T01:55:24;9.90;99.90
19870;DHT22;10097;50.862;4.696;2023-04-24T01:57:56;9.80;99.90
19870;DHT22;10097;50.862;4.696;2023-04-24T02:00:22;9.70;99.90
19870;DHT22;10097;50.862;4.696;2023-04-24T02:02:48;9.50;99.90
19870;DHT22;10097;50.862;4.696;2023-04-24T02:05:13;9.60;99.90
19870;DHT22;10097;50.862;4.696;2023-04-24T02:07:39;9.50;99.90
19870;DHT22;10097;50.862;4.696;2023-04-24T02:10:05;9.40;99.90
19870;DHT22;10097;50.862;4.696;2023-04-24T02:12:32;9.40;99.90
19870;DHT22;10097;50.862;4.696;2023-04-24T02:14:58;9.30;99.90
19870;DHT22;10097;50.862;4.696;2023-04-24T02:17:23;9.40;99.90
19870;DHT22;10097;50.862;4.696;2023-04-24T02:19:49;9.40;99.90
19870;DHT22;10097;50.862;4.696;2023-04-24T02:22:15;9.40;99.90
19870;DHT22;10097;50.862;4.696;2023-04-24T02:24:40;9.40;99.90
19870;DHT22;10097;50.862;4.696;2023-04-24T02:27:06;9.40;99.90
19870;DHT22;10097;50.862;4.696;2023-04-24T02:29:32;9.40;99.90
19870;DHT22;10097;50.862;4.696;2023-04-24T02:31:57;9.40;99.90
19870;DHT22;10097;50.862;4.696;2023-04-24T02:34:23;9.30;99.90
19870;DHT22;10097;50.862;4.696;2023-04-24T02:36:49;9.30;99.90
19870;DHT22;10097;50.862;4.696;2023-04-24T02:39:15;9.40;99.90
19870;DHT22;10097;50.862;4.696;2023-04-24T02:41:43;9.50;99.90
19870;DHT22;10097;50.862;4.696;2023-04-24T02:44:09;9.40;99.90
19870;DHT22;10097;50.862;4.696;2023-04-24T02:46:35;9.40;99.90
19870;DHT22;10097;50.862;4.696;2023-04-24T02:49:00;9.40;99.90
19870;DHT22;10097;50.862;4.696;2023-04-24T02:51:26;9.40;99.90
19870;DHT22;10097;50.862;4.696;2023-04-24T02:53:52;9.40;99.90
19870;DHT22;10097;50.862;4.696;2023-04-24T02:56:18;9.30;99.90
19870;DHT22;10097;50.862;4.696;2023-04-24T02:58:43;9.30;99.90
19870;DHT22;10097;50.862;4.696;2023-04-24T03:01:09;9.20;99.90
19870;DHT22;10097;50.862;4.696;2023-04-24T03:03:36;9.20;99.90
19870;DHT22;10097;50.862;4.696;2023-04-24T03:06:02;9.10;99.90
19870;DHT22;10097;50.862;4.696;2023-04-24T03:08:27;9.10;99.90
19870;DHT22;10097;50.862;4.696;2023-04-24T03:10:53;9.20;99.90
19870;DHT22;10097;50.862;4.696;2023-04-24T03:13:19;9.20;99.90
19870;DHT22;10097;50.862;4.696;2023-04-24T03:15:47;9.20;99.90
19870;DHT22;10097;50.862;4.696;2023-04-24T03:18:13;9.20;99.90
19870;DHT22;10097;50.862;4.696;2023-04-24T03:20:39;9.20;99.90
19870;DHT22;10097;50.862;4.696;2023-04-24T03:23:05;9.10;99.90
19870;DHT22;10097;50.862;4.696;2023-04-24T03:25:30;9.10;99.90
19870;DHT22;10097;50.862;4.696;2023-04-24T03:27:56;9.10;99.90
19870;DHT22;10097;50.862;4.696;2023-04-24T03:30:22;9.10;99.90
19870;DHT22;10097;50.862;4.696;2023-04-24T03:32:47;9.10;99.90
19870;DHT22;10097;50.862;4.696;2023-04-24T03:35:13;9.10;99.90
19870;DHT22;10097;50.862;4.696;2023-04-24T03:37:39;9.00;99.90
19870;DHT22;10097;50.862;4.696;2023-04-24T03:40:05;9.10;99.90
19870;DHT22;10097;50.862;4.696;2023-04-24T03:42:32;9.10;99.90
19870;DHT22;10097;50.862;4.696;2023-04-24T03:44:58;9.20;99.90
19870;DHT22;10097;50.862;4.696;2023-04-24T03:47:23;9.20;99.90
19870;DHT22;10097;50.862;4.696;2023-04-24T03:49:49;9.20;99.90
19870;DHT22;10097;50.862;4.696;2023-04-24T03:52:15;9.20;99.90
19870;DHT22;10097;50.862;4.696;2023-04-24T03:54:41;9.20;99.90
19870;DHT22;10097;50.862;4.696;2023-04-24T03:57:09;9.10;99.90
19870;DHT22;10097;50.862;4.696;2023-04-24T03:59:35;9.00;99.90
19870;DHT22;10097;50.862;4.696;2023-04-24T04:02:00;9.00;99.90
19870;DHT22;10097;50.862;4.696;2023-04-24T04:04:26;8.90;99.90
19870;DHT22;10097;50.862;4.696;2023-04-24T04:06:52;9.00;99.90
19870;DHT22;10097;50.862;4.696;2023-04-24T04:09:18;8.90;99.90
19870;DHT22;10097;50.862;4.696;2023-04-24T04:11:44;8.90;99.90
19870;DHT22;10097;50.862;4.696;2023-04-24T04:14:10;8.90;99.90
19870;DHT22;10097;50.862;4.696;2023-04-24T04:16:36;8.90;99.90
19870;DHT22;10097;50.862;4.696;2023-04-24T04:19:03;8.90;99.90
19870;DHT22;10097;50.862;4.696;2023-04-24T04:21:29;8.90;99.90
19870;DHT22;10097;50.862;4.696;2023-04-24T04:23:56;8.90;99.90
19870;DHT22;10097;50.862;4.696;2023-04-24T04:26:22;8.80;99.90
19870;DHT22;10097;50.862;4.696;2023-04-24T04:28:53;8.90;99.90
19870;DHT22;10097;50.862;4.696;2023-04-24T04:31:20;8.90;99.90
19870;DHT22;10097;50.862;4.696;2023-04-24T04:33:46;8.90;99.90
19870;DHT22;10097;50.862;4.696;2023-04-24T04:36:12;9.00;99.90
19870;DHT22;10097;50.862;4.696;2023-04-24T04:38:37;9.00;99.90
19870;DHT22;10097;50.862;4.696;2023-04-24T04:41:04;9.00;99.90
19870;DHT22;10097;50.862;4.696;2023-04-24T04:43:29;9.10;99.90
19870;DHT22;10097;50.862;4.696;2023-04-24T04:45:57;9.10;99.90
19870;DHT22;10097;50.862;4.696;2023-04-24T04:48:22;9.10;99.90
19870;DHT22;10097;50.862;4.696;2023-04-24T04:50:48;9.10;99.90
19870;DHT22;10097;50.862;4.696;2023-04-24T04:53:14;9.10;99.90
19870;DHT22;10097;50.862;4.696;2023-04-24T04:55:39;9.10;99.90
19870;DHT22;10097;50.862;4.696;2023-04-24T04:58:05;9.10;99.90
19870;DHT22;10097;50.862;4.696;2023-04-24T05:00:31;9.10;99.90
19870;DHT22;10097;50.862;4.696;2023-04-24T05:03:01;9.00;99.90
19870;DHT22;10097;50.862;4.696;2023-04-24T05:05:27;8.90;99.90
19870;DHT22;10097;50.862;4.696;2023-04-24T05:07:52;8.80;99.90
19870;DHT22;10097;50.862;4.696;2023-04-24T05:10:18;8.80;99.90
19870;DHT22;10097;50.862;4.696;2023-04-24T05:12:44;8.80;99.90
19870;DHT22;10097;50.862;4.696;2023-04-24T05:15:10;9.00;99.90
19870;DHT22;10097;50.862;4.696;2023-04-24T05:17:36;8.90;99.90
19870;DHT22;10097;50.862;4.696;2023-04-24T05:20:03;8.90;99.90
19870;DHT22;10097;50.862;4.696;2023-04-24T05:22:31;8.80;99.90
19870;DHT22;10097;50.862;4.696;2023-04-24T05:24:57;8.80;99.90
19870;DHT22;10097;50.862;4.696;2023-04-24T05:27:23;8.80;99.90
19870;DHT22;10097;50.862;4.696;2023-04-24T05:29:49;8.80;99.90
19870;DHT22;10097;50.862;4.696;2023-04-24T05:32:15;8.80;99.90
19870;DHT22;10097;50.862;4.696;2023-04-24T05:34:41;8.70;99.90
19870;DHT22;10097;50.862;4.696;2023-04-24T05:37:07;8.70;99.90
19870;DHT22;10097;50.862;4.696;2023-04-24T05:39:35;8.70;99.90
19870;DHT22;10097;50.862;4.696;2023-04-24T05:42:02;8.60;99.90
19870;DHT22;10097;50.862;4.696;2023-04-24T05:44:30;8.60;99.90
19870;DHT22;10097;50.862;4.696;2023-04-24T05:46:55;8.60;99.90
19870;DHT22;10097;50.862;4.696;2023-04-24T05:49:22;8.60;99.90
19870;DHT22;10097;50.862;4.696;2023-04-24T05:51:50;8.60;99.90
19870;DHT22;10097;50.862;4.696;2023-04-24T05:54:16;8.70;99.90
19870;DHT22;10097;50.862;4.696;2023-04-24T05:56:41;8.70;99.90
19870;DHT22;10097;50.862;4.696;2023-04-24T05:59:08;8.60;99.90
19870;DHT22;10097;50.862;4.696;2023-04-24T06:01:34;8.50;99.90
19870;DHT22;10097;50.862;4.696;2023-04-24T06:04:02;8.60;99.90
19870;DHT22;10097;50.862;4.696;2023-04-24T06:06:28;8.60;99.90
19870;DHT22;10097;50.862;4.696;2023-04-24T06:08:54;8.70;99.90
19870;DHT22;10097;50.862;4.696;2023-04-24T06:11:20;8.60;99.90
19870;DHT22;10097;50.862;4.696;2023-04-24T06:13:45;8.60;99.90
19870;DHT22;10097;50.862;4.696;2023-04-24T06:16:11;8.60;99.90
19870;DHT22;10097;50.862;4.696;2023-04-24T06:18:37;8.60;99.90
19870;DHT22;10097;50.862;4.696;2023-04-24T06:21:03;8.70;99.90
19870;DHT22;10097;50.862;4.696;2023-04-24T06:23:29;8.70;99.90
19870;DHT22;10097;50.862;4.696;2023-04-24T06:25:54;8.80;99.90
19870;DHT22;10097;50.862;4.696;2023-04-24T06:28:20;8.70;99.90
19870;DHT22;10097;50.862;4.696;2023-04-24T06:30:46;8.70;99.90
19870;DHT22;10097;50.862;4.696;2023-04-24T06:33:11;8.70;99.90
19870;DHT22;10097;50.862;4.696;2023-04-24T06:35:37;8.70;99.90
19870;DHT22;10097;50.862;4.696;2023-04-24T06:38:05;8.60;99.90
19870;DHT22;10097;50.862;4.696;2023-04-24T06:40:31;8.60;99.90
19870;DHT22;10097;50.862;4.696;2023-04-24T06:42:57;8.70;99.90
19870;DHT22;10097;50.862;4.696;2023-04-24T06:45:25;8.70;99.90
19870;DHT22;10097;50.862;4.696;2023-04-24T06:47:52;8.70;99.90
19870;DHT22;10097;50.862;4.696;2023-04-24T06:50:18;8.60;99.90
19870;DHT22;10097;50.862;4.696;2023-04-24T06:52:43;8.70;99.90
19870;DHT22;10097;50.862;4.696;2023-04-24T06:55:09;8.80;99.90
19870;DHT22;10097;50.862;4.696;2023-04-24T06:57:36;8.70;99.90
19870;DHT22;10097;50.862;4.696;2023-04-24T07:00:03;8.70;99.90
19870;DHT22;10097;50.862;4.696;2023-04-24T07:02:30;8.80;99.90
19870;DHT22;10097;50.862;4.696;2023-04-24T07:04:56;8.80;99.90
19870;DHT22;10097;50.862;4.696;2023-04-24T07:07:22;8.90;99.90
19870;DHT22;10097;50.862;4.696;2023-04-24T07:09:49;8.90;99.90
19870;DHT22;10097;50.862;4.696;2023-04-24T07:12:16;9.00;99.90
19870;DHT22;10097;50.862;4.696;2023-04-24T07:14:42;8.90;99.90
19870;DHT22;10097;50.862;4.696;2023-04-24T07:17:08;9.00;99.90
19870;DHT22;10097;50.862;4.696;2023-04-24T07:19:34;9.10;99.90
19870;DHT22;10097;50.862;4.696;2023-04-24T07:22:02;9.20;99.90
19870;DHT22;10097;50.862;4.696;2023-04-24T07:24:29;9.10;99.90
19870;DHT22;10097;50.862;4.696;2023-04-24T07:26:55;9.10;99.90
19870;DHT22;10097;50.862;4.696;2023-04-24T07:29:20;9.20;99.90
19870;DHT22;10097;50.862;4.696;2023-04-24T07:31:46;9.20;99.90
19870;DHT22;10097;50.862;4.696;2023-04-24T07:34:12;9.20;99.90
19870;DHT22;10097;50.862;4.696;2023-04-24T07:36:38;9.20;99.90
19870;DHT22;10097;50.862;4.696;2023-04-24T07:39:04;9.20;99.90
19870;DHT22;10097;50.862;4.696;2023-04-24T07:41:30;9.20;99.90
19870;DHT22;10097;50.862;4.696;2023-04-24T07:43:56;9.20;99.90
19870;DHT22;10097;50.862;4.696;2023-04-24T07:46:21;9.20;99.90
19870;DHT22;10097;50.862;4.696;2023-04-24T07:48:48;9.10;99.90
19870;DHT22;10097;50.862;4.696;2023-04-24T07:51:15;9.10;99.90
19870;DHT22;10097;50.862;4.696;2023-04-24T07:53:41;9.10;99.90
19870;DHT22;10097;50.862;4.696;2023-04-24T07:56:07;9.10;99.90
19870;DHT22;10097;50.862;4.696;2023-04-24T07:58:33;9.10;99.90
19870;DHT22;10097;50.862;4.696;2023-04-24T08:00:58;9.10;99.90
19870;DHT22;10097;50.862;4.696;2023-04-24T08:03:24;9.00;99.90
19870;DHT22;10097;50.862;4.696;2023-04-24T08:05:50;9.10;99.90
19870;DHT22;10097;50.862;4.696;2023-04-24T08:08:16;9.20;99.90
19870;DHT22;10097;50.862;4.696;2023-04-24T08:10:42;9.30;99.90
19870;DHT22;10097;50.862;4.696;2023-04-24T08:13:08;9.30;99.90
19870;DHT22;10097;50.862;4.696;2023-04-24T08:15:34;9.50;99.90
19870;DHT22;10097;50.862;4.696;2023-04-24T08:18:00;9.60;99.90
19870;DHT22;10097;50.862;4.696;2023-04-24T08:20:26;9.90;99.90
19870;DHT22;10097;50.862;4.696;2023-04-24T08:22:51;10.00;99.90
19870;DHT22;10097;50.862;4.696;2023-04-24T08:25:17;10.10;99.90
19870;DHT22;10097;50.862;4.696;2023-04-24T08:27:44;10.10;99.90
19870;DHT22;10097;50.862;4.696;2023-04-24T08:30:10;10.30;99.90
19870;DHT22;10097;50.862;4.696;2023-04-24T08:32:36;10.30;99.90
19870;DHT22;10097;50.862;4.696;2023-04-24T08:35:03;10.20;99.90
19870;DHT22;10097;50.862;4.696;2023-04-24T08:37:29;9.90;99.90
19870;DHT22;10097;50.862;4.696;2023-04-24T08:39:55;9.70;99.90
19870;DHT22;10097;50.862;4.696;2023-04-24T08:42:21;9.70;99.90
19870;DHT22;10097;50.862;4.696;2023-04-24T08:44:49;9.60;99.90
19870;DHT22;10097;50.862;4.696;2023-04-24T08:47:15;9.80;99.90
19870;DHT22;10097;50.862;4.696;2023-04-24T08:49:42;9.90;99.90
19870;DHT22;10097;50.862;4.696;2023-04-24T08:52:09;9.90;99.90
19870;DHT22;10097;50.862;4.696;2023-04-24T08:54:35;9.90;99.90
19870;DHT22;10097;50.862;4.696;2023-04-24T08:57:02;10.00;99.90
19870;DHT22;10097;50.862;4.696;2023-04-24T08:59:30;10.30;99.90
19870;DHT22;10097;50.862;4.696;2023-04-24T09:01:56;10.60;99.90
19870;DHT22;10097;50.862;4.696;2023-04-24T09:04:23;10.80;99.90
19870;DHT22;10097;50.862;4.696;2023-04-24T09:06:55;10.70;99.90
19870;DHT22;10097;50.862;4.696;2023-04-24T09:09:23;10.70;99.90
19870;DHT22;10097;50.862;4.696;2023-04-24T09:11:52;10.50;99.90
19870;DHT22;10097;50.862;4.696;2023-04-24T09:14:20;10.60;99.90
19870;DHT22;10097;50.862;4.696;2023-04-24T09:16:47;10.60;99.90
19870;DHT22;10097;50.862;4.696;2023-04-24T09:19:12;10.60;99.90
19870;DHT22;10097;50.862;4.696;2023-04-24T09:21:38;10.60;99.90
19870;DHT22;10097;50.862;4.696;2023-04-24T09:24:05;10.50;99.90
19870;DHT22;10097;50.862;4.696;2023-04-24T09:26:36;10.40;99.90
19870;DHT22;10097;50.862;4.696;2023-04-24T09:29:03;10.50;99.90
19870;DHT22;10097;50.862;4.696;2023-04-24T09:31:29;10.50;99.90
19870;DHT22;10097;50.862;4.696;2023-04-24T09:34:01;10.80;99.90
19870;DHT22;10097;50.862;4.696;2023-04-24T09:36:35;11.00;99.90
19870;DHT22;10097;50.862;4.696;2023-04-24T09:39:04;11.40;99.90
19870;DHT22;10097;50.862;4.696;2023-04-24T09:41:32;11.60;99.90
19870;DHT22;10097;50.862;4.696;2023-04-24T09:44:24;11.90;99.90
19870;DHT22;10097;50.862;4.696;2023-04-24T09:47:00;12.10;99.90
19870;DHT22;10097;50.862;4.696;2023-04-24T09:49:30;11.90;99.90
19870;DHT22;10097;50.862;4.696;2023-04-24T09:52:25;11.70;99.90
19870;DHT22;10097;50.862;4.696;2023-04-24T09:55:00;11.40;99.90
19870;DHT22;10097;50.862;4.696;2023-04-24T09:57:32;11.30;99.90
19870;DHT22;10097;50.862;4.696;2023-04-24T09:59:57;11.20;99.90
19870;DHT22;10097;50.862;4.696;2023-04-24T10:02:23;11.30;99.90
19870;DHT22;10097;50.862;4.696;2023-04-24T10:04:56;11.50;99.90
19870;DHT22;10097;50.862;4.696;2023-04-24T10:07:21;11.90;99.90
19870;DHT22;10097;50.862;4.696;2023-04-24T10:09:48;12.10;99.90
19870;DHT22;10097;50.862;4.696;2023-04-24T10:12:14;12.10;99.90
19870;DHT22;10097;50.862;4.696;2023-04-24T10:14:41;12.00;99.90
19870;DHT22;10097;50.862;4.696;2023-04-24T10:17:06;12.30;99.90
19870;DHT22;10097;50.862;4.696;2023-04-24T10:19:33;12.60;99.90
19870;DHT22;10097;50.862;4.696;2023-04-24T10:22:01;12.60;99.90
19870;DHT22;10097;50.862;4.696;2023-04-24T10:24:28;12.70;99.90
19870;DHT22;10097;50.862;4.696;2023-04-24T10:26:55;12.70;99.90
19870;DHT22;10097;50.862;4.696;2023-04-24T10:29:22;12.80;99.90
19870;DHT22;10097;50.862;4.696;2023-04-24T10:31:48;12.90;99.90
19870;DHT22;10097;50.862;4.696;2023-04-24T10:34:16;12.90;99.90
19870;DHT22;10097;50.862;4.696;2023-04-24T10:36:46;12.70;99.90
19870;DHT22;10097;50.862;4.696;2023-04-24T10:39:14;12.90;99.90
19870;DHT22;10097;50.862;4.696;2023-04-24T10:41:41;13.10;99.90
19870;DHT22;10097;50.862;4.696;2023-04-24T10:44:08;13.50;99.90
19870;DHT22;10097;50.862;4.696;2023-04-24T10:46:38;13.70;99.90
19870;DHT22;10097;50.862;4.696;2023-04-24T10:49:08;13.70;99.90
19870;DHT22;10097;50.862;4.696;2023-04-24T10:51:53;13.40;99.90
19870;DHT22;10097;50.862;4.696;2023-04-24T10:56:49;13.30;99.90
19870;DHT22;10097;50.862;4.696;2023-04-24T10:59:24;13.20;99.90
19870;DHT22;10097;50.862;4.696;2023-04-24T11:01:55;13.20;99.90
19870;DHT22;10097;50.862;4.696;2023-04-24T11:04:29;13.20;99.90
19870;DHT22;10097;50.862;4.696;2023-04-24T11:06:56;13.00;99.90
19870;DHT22;10097;50.862;4.696;2023-04-24T11:09:22;12.70;99.90
19870;DHT22;10097;50.862;4.696;2023-04-24T11:11:47;12.50;99.90
19870;DHT22;10097;50.862;4.696;2023-04-24T11:14:16;12.40;99.90
19870;DHT22;10097;50.862;4.696;2023-04-24T11:16:51;12.80;99.90
19870;DHT22;10097;50.862;4.696;2023-04-24T11:19:21;13.20;99.90
19870;DHT22;10097;50.862;4.696;2023-04-24T11:21:59;13.30;99.90
19870;DHT22;10097;50.862;4.696;2023-04-24T11:29:49;13.20;99.90
19870;DHT22;10097;50.862;4.696;2023-04-24T11:32:34;13.00;99.90
19870;DHT22;10097;50.862;4.696;2023-04-24T11:35:22;12.90;99.90
19870;DHT22;10097;50.862;4.696;2023-04-24T11:37:53;12.70;99.90
19870;DHT22;10097;50.862;4.696;2023-04-24T11:40:22;12.90;99.90
19870;DHT22;10097;50.862;4.696;2023-04-24T11:42:54;13.20;99.90
19870;DHT22;10097;50.862;4.696;2023-04-24T11:45:26;13.60;99.90
19870;DHT22;10097;50.862;4.696;2023-04-24T11:47:53;13.90;99.90
19870;DHT22;10097;50.862;4.696;2023-04-24T11:50:25;13.90;99.90
19870;DHT22;10097;50.862;4.696;2023-04-24T11:52:51;14.20;99.90
19870;DHT22;10097;50.862;4.696;2023-04-24T11:57:48;13.90;99.90
19870;DHT22;10097;50.862;4.696;2023-04-24T12:00:22;13.70;99.90
19870;DHT22;10097;50.862;4.696;2023-04-24T12:02:49;13.70;99.90
19870;DHT22;10097;50.862;4.696;2023-04-24T12:05:26;13.60;99.90
19870;DHT22;10097;50.862;4.696;2023-04-24T12:07:53;13.90;99.90
19870;DHT22;10097;50.862;4.696;2023-04-24T12:10:26;14.10;99.90
19870;DHT22;10097;50.862;4.696;2023-04-24T12:12:53;14.30;99.90
19870;DHT22;10097;50.862;4.696;2023-04-24T12:15:20;14.10;99.90
19870;DHT22;10097;50.862;4.696;2023-04-24T12:17:46;14.00;99.90
19870;DHT22;10097;50.862;4.696;2023-04-24T12:20:13;13.60;99.90
19870;DHT22;10097;50.862;4.696;2023-04-24T12:22:54;13.30;99.90
19870;DHT22;10097;50.862;4.696;2023-04-24T12:25:24;13.50;99.90
19870;DHT22;10097;50.862;4.696;2023-04-24T12:30:38;13.50;99.90
19870;DHT22;10097;50.862;4.696;2023-04-24T12:33:04;13.90;99.90
19870;DHT22;10097;50.862;4.696;2023-04-24T12:35:32;13.90;99.90
19870;DHT22;10097;50.862;4.696;2023-04-24T12:38:22;13.70;99.90
19870;DHT22;10097;50.862;4.696;2023-04-24T12:40:47;13.70;99.90
19870;DHT22;10097;50.862;4.696;2023-04-24T12:43:15;13.60;99.90
19870;DHT22;10097;50.862;4.696;2023-04-24T12:45:41;13.70;99.90
19870;DHT22;10097;50.862;4.696;2023-04-24T12:48:06;14.30;99.90
19870;DHT22;10097;50.862;4.696;2023-04-24T12:50:32;14.90;99.90
19870;DHT22;10097;50.862;4.696;2023-04-24T12:52:57;15.70;99.90
19870;DHT22;10097;50.862;4.696;2023-04-24T12:55:25;15.60;99.90
19870;DHT22;10097;50.862;4.696;2023-04-24T12:57:51;15.30;99.90
19870;DHT22;10097;50.862;4.696;2023-04-24T13:00:18;14.90;99.90
19870;DHT22;10097;50.862;4.696;2023-04-24T13:02:44;14.90;99.90
19870;DHT22;10097;50.862;4.696;2023-04-24T13:05:10;14.60;99.90
19870;DHT22;10097;50.862;4.696;2023-04-24T13:07:36;14.50;99.90
19870;DHT22;10097;50.862;4.696;2023-04-24T13:10:02;14.60;99.90
19870;DHT22;10097;50.862;4.696;2023-04-24T13:12:28;15.10;99.90
19870;DHT22;10097;50.862;4.696;2023-04-24T13:14:54;15.50;99.90
19870;DHT22;10097;50.862;4.696;2023-04-24T13:17:19;15.80;99.90
19870;DHT22;10097;50.862;4.696;2023-04-24T13:19:45;15.80;99.90
19870;DHT22;10097;50.862;4.696;2023-04-24T13:22:12;15.90;99.90
19870;DHT22;10097;50.862;4.696;2023-04-24T13:24:38;16.10;99.90
19870;DHT22;10097;50.862;4.696;2023-04-24T13:27:06;16.20;99.90
19870;DHT22;10097;50.862;4.696;2023-04-24T13:29:32;16.60;99.90
19870;DHT22;10097;50.862;4.696;2023-04-24T13:31:58;16.90;99.90
19870;DHT22;10097;50.862;4.696;2023-04-24T13:34:25;17.10;99.90
19870;DHT22;10097;50.862;4.696;2023-04-24T13:36:56;17.00;99.90
19870;DHT22;10097;50.862;4.696;2023-04-24T13:39:22;16.90;99.90
19870;DHT22;10097;50.862;4.696;2023-04-24T13:41:48;17.30;99.90
19870;DHT22;10097;50.862;4.696;2023-04-24T13:44:15;17.40;99.90
19870;DHT22;10097;50.862;4.696;2023-04-24T13:46:42;17.30;99.90
19870;DHT22;10097;50.862;4.696;2023-04-24T13:49:10;17.00;99.90
19870;DHT22;10097;50.862;4.696;2023-04-24T13:51:36;16.70;99.90
19870;DHT22;10097;50.862;4.696;2023-04-24T13:54:01;16.20;99.90
19870;DHT22;10097;50.862;4.696;2023-04-24T13:56:27;16.00;99.90
19870;DHT22;10097;50.862;4.696;2023-04-24T13:58:53;16.20;99.90
19870;DHT22;10097;50.862;4.696;2023-04-24T14:01:20;16.30;99.90
19870;DHT22;10097;50.862;4.696;2023-04-24T14:03:49;16.30;99.90
19870;DHT22;10097;50.862;4.696;2023-04-24T14:06:15;16.20;99.90
19870;DHT22;10097;50.862;4.696;2023-04-24T14:08:41;16.40;99.90
19870;DHT22;10097;50.862;4.696;2023-04-24T14:11:07;16.40;99.90
19870;DHT22;10097;50.862;4.696;2023-04-24T14:13:33;16.70;99.90
19870;DHT22;10097;50.862;4.696;2023-04-24T14:15:58;16.30;99.90
19870;DHT22;10097;50.862;4.696;2023-04-24T14:18:24;15.90;99.90
19870;DHT22;10097;50.862;4.696;2023-04-24T14:20:50;16.10;99.90
19870;DHT22;10097;50.862;4.696;2023-04-24T14:23:15;16.30;99.90
19870;DHT22;10097;50.862;4.696;2023-04-24T14:25:41;16.60;99.90
19870;DHT22;10097;50.862;4.696;2023-04-24T14:28:07;16.20;99.90
19870;DHT22;10097;50.862;4.696;2023-04-24T14:30:33;16.50;99.90
19870;DHT22;10097;50.862;4.696;2023-04-24T14:32:59;16.30;99.90
19870;DHT22;10097;50.862;4.696;2023-04-24T14:35:25;16.30;99.90
19870;DHT22;10097;50.862;4.696;2023-04-24T14:37:51;16.60;99.90
19870;DHT22;10097;50.862;4.696;2023-04-24T14:40:19;16.30;99.90
19870;DHT22;10097;50.862;4.696;2023-04-24T14:42:44;16.30;99.90
19870;DHT22;10097;50.862;4.696;2023-04-24T14:45:11;15.60;99.90
19870;DHT22;10097;50.862;4.696;2023-04-24T14:47:37;15.40;99.90
19870;DHT22;10097;50.862;4.696;2023-04-24T14:50:03;15.20;99.90
19870;DHT22;10097;50.862;4.696;2023-04-24T14:52:29;15.10;99.90
19870;DHT22;10097;50.862;4.696;2023-04-24T14:54:54;15.30;99.90
19870;DHT22;10097;50.862;4.696;2023-04-24T14:57:20;15.30;99.90
19870;DHT22;10097;50.862;4.696;2023-04-24T14:59:46;14.90;99.90
19870;DHT22;10097;50.862;4.696;2023-04-24T15:02:12;14.70;99.90
19870;DHT22;10097;50.862;4.696;2023-04-24T15:04:37;14.50;99.90
19870;DHT22;10097;50.862;4.696;2023-04-24T15:07:04;14.30;99.90
19870;DHT22;10097;50.862;4.696;2023-04-24T15:09:29;14.20;99.90
19870;DHT22;10097;50.862;4.696;2023-04-24T15:11:57;14.10;99.90
19870;DHT22;10097;50.862;4.696;2023-04-24T15:14:23;13.90;99.90
19870;DHT22;10097;50.862;4.696;2023-04-24T15:16:48;13.80;99.90
19870;DHT22;10097;50.862;4.696;2023-04-24T15:19:14;13.70;99.90
19870;DHT22;10097;50.862;4.696;2023-04-24T15:21:40;13.70;99.90
19870;DHT22;10097;50.862;4.696;2023-04-24T15:24:08;13.80;99.90
19870;DHT22;10097;50.862;4.696;2023-04-24T15:26:33;13.90;99.90
19870;DHT22;10097;50.862;4.696;2023-04-24T15:28:59;14.20;99.90
19870;DHT22;10097;50.862;4.696;2023-04-24T15:31:25;14.30;99.90
19870;DHT22;10097;50.862;4.696;2023-04-24T15:33:50;14.10;99.90
19870;DHT22;10097;50.862;4.696;2023-04-24T15:36:17;14.50;99.90
19870;DHT22;10097;50.862;4.696;2023-04-24T15:38:43;14.90;99.90
19870;DHT22;10097;50.862;4.696;2023-04-24T15:41:10;14.80;99.90
19870;DHT22;10097;50.862;4.696;2023-04-24T15:43:36;14.80;99.90
19870;DHT22;10097;50.862;4.696;2023-04-24T15:46:04;14.70;99.90
19870;DHT22;10097;50.862;4.696;2023-04-24T15:48:30;14.60;99.90